Time;durP1;ratioP1;P1;durP2;ratioP2;P2;SDS_P1;SDS_P2;PMS_P1;PMS_P2;Temp;Humidity;BMP_temperature;BMP_pressure;BME280_temperature;BME280_humidity;BME280_pressure;Samples;Min_cycle;Max_cycle;Signal;HPM_P1;HPM_P2
2022/08/31 00:10:48;;;;;;;467.53;437.57;;;;;;;;;;16887421;29;20236;-82
2022/08/31 00:19:09;;;;;;;439.37;411.33;;;;;;;;;;16887171;28;20209;-82
2022/08/31 00:27:29;;;;;;;368.77;346.23;;;;;;;;;;16887644;28;20178;-82
2022/08/31 00:35:50;;;;;;;481.17;450.23;;;;;;;;;;16885162;28;20205;-82
2022/08/31 00:44:10;;;;;;;499.00;466.83;;;;;;;;;;16883781;28;20205;-82
2022/08/31 00:52:32;;;;;;;378.90;355.90;;;;;;;;;;16884627;28;20351;-82
2022/08/31 01:00:53;;;;;;;394.40;370.43;;;;;;;;;;16886095;28;20311;-82
2022/08/31 01:09:13;;;;;;;331.20;312.53;;;;;;;;;;16884928;28;20173;-82
2022/08/31 01:17:34;;;;;;;345.90;325.97;;;;;;;;;;16885532;28;20468;-82
2022/08/31 01:25:56;;;;;;;376.20;353.67;;;;;;;;;;16883253;28;20626;-82
2022/08/31 01:34:16;;;;;;;378.57;355.90;;;;;;;;;;16882906;28;20688;-82
2022/08/31 01:42:36;;;;;;;385.10;362.03;;;;;;;;;;16884596;28;20201;-82
2022/08/31 01:50:57;;;;;;;360.43;339.07;;;;;;;;;;16883577;28;20193;-82
2022/08/31 01:59:18;;;;;;;345.63;325.97;;;;;;;;;;16892655;28;20751;-82
2022/08/31 02:07:39;;;;;;;419.03;392.90;;;;;;;;;;16892599;28;20181;-82
2022/08/31 02:16:00;;;;;;;369.87;348.17;;;;;;;;;;16892092;28;20692;-83
2022/08/31 02:24:20;;;;;;;408.80;383.90;;;;;;;;;;16892751;28;20193;-82
2022/08/31 02:32:40;;;;;;;348.37;328.43;;;;;;;;;;16892234;28;20232;-82
2022/08/31 02:41:01;;;;;;;311.57;294.50;;;;;;;;;;16892030;28;20193;-82
2022/08/31 02:49:21;;;;;;;280.17;265.37;;;;;;;;;;16891413;28;20275;-82
2022/08/31 02:57:42;;;;;;;297.53;281.33;;;;;;;;;;16891343;28;20245;-82
2022/08/31 03:06:02;;;;;;;321.07;303.43;;;;;;;;;;16890750;29;20178;-82
2022/08/31 03:14:22;;;;;;;381.10;358.27;;;;;;;;;;16890144;28;20213;-82
2022/08/31 03:22:42;;;;;;;374.30;352.37;;;;;;;;;;16889818;28;20193;-82
2022/08/31 03:31:12;;;;;;;268.07;253.90;;;;;;;;;;16889410;29;20552;-82
2022/08/31 03:39:32;;;;;;;346.33;326.67;;;;;;;;;;16887759;29;20201;-82
2022/08/31 03:47:53;;;;;;;117.23;111.93;;;;;;;;;;16889824;28;20205;-82
2022/08/31 03:56:13;;;;;;;80.88;77.25;;;;;;;;;;16888037;28;20280;-82
2022/08/31 04:04:33;;;;;;;60.20;57.20;;;;;;;;;;16887905;28;20188;-82
2022/08/31 04:12:54;;;;;;;42.43;40.37;;;;;;;;;;16887334;28;20213;-82
2022/08/31 04:21:15;;;;;;;46.50;44.27;;;;;;;;;;16887823;28;20181;-82
2022/08/31 04:29:36;;;;;;;37.13;35.13;;;;;;;;;;16886719;28;20185;-82
2022/08/31 04:37:56;;;;;;;31.40;29.73;;;;;;;;;;16886408;29;20221;-82
2022/08/31 04:46:17;;;;;;;38.10;36.27;;;;;;;;;;16884957;29;20259;-82
2022/08/31 04:54:37;;;;;;;31.63;30.13;;;;;;;;;;16885363;28;20204;-82
2022/08/31 05:02:58;;;;;;;35.07;33.30;;;;;;;;;;16885326;29;20174;-82
2022/08/31 05:11:19;;;;;;;33.40;31.67;;;;;;;;;;16884867;28;20192;-82
2022/08/31 05:19:39;;;;;;;44.80;42.70;;;;;;;;;;16884637;28;20224;-82
2022/08/31 05:27:59;;;;;;;40.37;38.30;;;;;;;;;;16888073;28;20268;-82
2022/08/31 05:36:19;;;;;;;23.70;22.43;;;;;;;;;;16895131;28;20299;-82
2022/08/31 05:44:40;;;;;;;34.27;32.40;;;;;;;;;;16894726;28;20594;-82
2022/08/31 05:53:02;;;;;;;36.83;35.07;;;;;;;;;;16894229;28;20205;-82
2022/08/31 06:01:24;;;;;;;38.50;36.67;;;;;;;;;;16894604;28;20669;-82
2022/08/31 06:09:44;;;;;;;36.20;34.47;;;;;;;;;;16893551;29;20193;-82
2022/08/31 06:18:06;;;;;;;36.20;34.30;;;;;;;;;;16893116;29;20205;-82
2022/08/31 06:26:28;;;;;;;30.43;28.97;;;;;;;;;;16894665;29;20188;-82
2022/08/31 06:34:48;;;;;;;31.10;29.70;;;;;;;;;;16892269;29;20205;-83
2022/08/31 06:43:08;;;;;;;43.30;41.30;;;;;;;;;;16890818;29;20173;-82
2022/08/31 06:51:35;;;;;;;36.83;35.07;;;;;;;;;;16890322;28;20205;-82
2022/08/31 06:59:55;;;;;;;43.70;41.50;;;;;;;;;;16891528;28;20560;-82
2022/08/31 07:08:15;;;;;;;59.30;56.53;;;;;;;;;;16890567;28;20188;-82
2022/08/31 07:16:36;;;;;;;61.13;58.20;;;;;;;;;;16890126;29;20197;-82
2022/08/31 07:24:56;;;;;;;75.72;72.22;;;;;;;;;;16888694;28;20243;-83
2022/08/31 07:33:17;;;;;;;67.50;64.38;;;;;;;;;;16890110;28;20205;-82
2022/08/31 07:50:17;;;;;;;100.22;95.20;;;;;;;;;;16888261;29;20609;-82
2022/08/31 07:58:39;;;;;;;183.32;172.77;;;;;;;;;;16887093;28;20328;-82
2022/08/31 08:07:04;;;;;;;218.88;206.02;;;;;;;;;;16888656;28;20564;-82
2022/08/31 08:15:25;;;;;;;237.50;223.50;;;;;;;;;;16887281;29;20209;-82
2022/08/31 08:23:45;;;;;;;302.52;283.58;;;;;;;;;;16886901;29;20177;-82
2022/08/31 08:32:07;;;;;;;364.45;338.92;;;;;;;;;;16887597;29;20272;-82
2022/08/31 08:40:41;;;;;;;426.15;394.15;;;;;;;;;;16886178;28;20251;-82
2022/08/31 08:49:06;;;;;;;499.23;459.83;;;;;;;;;;16885732;29;20228;-82
2022/08/31 08:57:31;;;;;;;575.38;529.55;;;;;;;;;;16885711;28;20232;-82
2022/08/31 09:05:51;;;;;;;610.50;561.30;;;;;;;;;;16893429;29;20191;-82
2022/08/31 09:14:18;;;;;;;621.40;571.72;;;;;;;;;;16895451;29;20216;-82
2022/08/31 09:22:49;;;;;;;615.75;565.95;;;;;;;;;;16895921;29;20660;-82
2022/08/31 09:31:24;;;;;;;615.78;566.70;;;;;;;;;;16895600;29;20225;-82
2022/08/31 09:39:46;;;;;;;557.55;513.80;;;;;;;;;;16897828;29;20236;-82
2022/08/31 09:48:07;;;;;;;577.78;533.80;;;;;;;;;;16893562;29;20205;-82
2022/08/31 09:56:28;;;;;;;543.83;502.52;;;;;;;;;;16894418;28;20240;-82
2022/08/31 10:04:54;;;;;;;496.00;459.42;;;;;;;;;;16892980;28;20260;-82
2022/08/31 10:13:20;;;;;;;524.92;486.15;;;;;;;;;;16892994;28;20642;-82
2022/08/31 10:21:56;;;;;;;590.65;545.90;;;;;;;;;;16893933;29;20185;-82
2022/08/31 10:30:22;;;;;;;584.47;539.88;;;;;;;;;;16892600;29;20645;-82
2022/08/31 10:38:44;;;;;;;590.33;545.22;;;;;;;;;;16892152;29;20225;-82
2022/08/31 10:47:05;;;;;;;537.03;495.77;;;;;;;;;;16891619;28;20212;-82
2022/08/31 10:55:46;;;;;;;609.88;562.60;;;;;;;;;;16890200;28;20240;-82
2022/08/31 11:04:07;;;;;;;570.22;526.13;;;;;;;;;;16892504;29;20193;-82
2022/08/31 11:12:32;;;;;;;521.85;481.85;;;;;;;;;;16890416;29;20177;-82
2022/08/31 11:21:04;;;;;;;414.52;384.80;;;;;;;;;;16890028;29;20536;-82
2022/08/31 11:29:27;;;;;;;388.73;360.98;;;;;;;;;;16889807;29;20490;-82
2022/08/31 11:37:53;;;;;;;433.60;401.70;;;;;;;;;;16888115;29;20676;-82
2022/08/31 11:46:25;;;;;;;394.10;366.13;;;;;;;;;;16889598;29;20204;-82
2022/08/31 11:54:47;;;;;;;436.80;404.52;;;;;;;;;;16887307;28;20245;-82
2022/08/31 12:03:08;;;;;;;393.45;365.17;;;;;;;;;;16887251;29;20166;-82
2022/08/31 12:11:35;;;;;;;533.20;491.80;;;;;;;;;;16887159;28;20181;-83
2022/08/31 12:20:05;;;;;;;591.13;545.47;;;;;;;;;;16889953;29;20291;-82
2022/08/31 12:28:35;;;;;;;603.08;556.83;;;;;;;;;;16886592;29;20680;-82
2022/08/31 12:36:55;;;;;;;648.33;598.13;;;;;;;;;;16885830;28;20193;-82
2022/08/31 12:45:16;;;;;;;682.83;631.08;;;;;;;;;;16885785;28;20209;-82
2022/08/31 12:54:00;;;;;;;684.17;632.67;;;;;;;;;;16882898;28;20669;-82
2022/08/31 13:02:21;;;;;;;673.50;622.47;;;;;;;;;;16883222;28;20240;-82
2022/08/31 13:10:41;;;;;;;599.88;553.70;;;;;;;;;;16883771;28;20174;-82
2022/08/31 13:19:04;;;;;;;650.00;599.80;;;;;;;;;;16883390;28;20569;-82
2022/08/31 13:27:25;;;;;;;579.97;534.67;;;;;;;;;;16883376;29;20177;-82
2022/08/31 13:35:48;;;;;;;586.45;541.00;;;;;;;;;;16883865;29;20533;-82
2022/08/31 13:44:11;;;;;;;565.83;522.38;;;;;;;;;;16883453;28;20196;-82
2022/08/31 13:52:33;;;;;;;407.27;378.42;;;;;;;;;;16891038;28;20279;-83
2022/08/31 14:01:17;;;;;;;388.90;361.95;;;;;;;;;;16893378;28;20585;-82
2022/08/31 14:09:42;;;;;;;375.25;349.40;;;;;;;;;;16894606;29;20173;-82
2022/08/31 14:18:16;;;;;;;392.27;364.75;;;;;;;;;;16893113;29;20563;-82
2022/08/31 14:26:40;;;;;;;380.48;353.95;;;;;;;;;;16892193;29;20184;-82
2022/08/31 14:35:01;;;;;;;377.88;351.50;;;;;;;;;;16890867;28;20224;-83
2022/08/31 14:43:21;;;;;;;391.38;363.67;;;;;;;;;;16891691;28;20629;-83
2022/08/31 14:51:42;;;;;;;427.90;396.88;;;;;;;;;;16891173;28;20209;-83
2022/08/31 15:00:04;;;;;;;602.67;557.17;;;;;;;;;;16890395;28;20604;-83
2022/08/31 15:08:26;;;;;;;549.20;508.40;;;;;;;;;;16890840;28;20209;-83
2022/08/31 15:16:48;;;;;;;453.02;420.65;;;;;;;;;;16890456;28;20209;-82
2022/08/31 15:25:10;;;;;;;463.40;430.33;;;;;;;;;;16889406;28;20255;-83
2022/08/31 15:33:31;;;;;;;467.83;434.33;;;;;;;;;;16888490;28;20259;-83
2022/08/31 15:41:52;;;;;;;421.45;391.90;;;;;;;;;;16889465;28;20579;-83
2022/08/31 15:50:16;;;;;;;413.88;385.00;;;;;;;;;;16887502;28;20201;-83
2022/08/31 15:58:37;;;;;;;425.83;395.80;;;;;;;;;;16887490;28;20315;-83
2022/08/31 16:06:59;;;;;;;460.25;427.67;;;;;;;;;;16886969;28;20757;-83
2022/08/31 16:15:20;;;;;;;432.58;402.45;;;;;;;;;;16886266;29;20601;-83
2022/08/31 16:23:40;;;;;;;395.55;368.83;;;;;;;;;;16884782;29;20185;-83
2022/08/31 16:32:01;;;;;;;410.33;382.37;;;;;;;;;;16885994;29;20542;-83
2022/08/31 16:40:24;;;;;;;336.63;315.92;;;;;;;;;;16884993;29;20688;-83
2022/08/31 16:57:25;;;;;;;374.83;350.73;;;;;;;;;;16885651;28;20295;-83
2022/08/31 17:05:51;;;;;;;390.77;365.47;;;;;;;;;;16879524;29;20221;-82
2022/08/31 17:14:16;;;;;;;389.33;364.10;;;;;;;;;;16879872;29;20275;-82
2022/08/31 17:22:37;;;;;;;378.43;354.70;;;;;;;;;;16882788;29;20216;-82
2022/08/31 17:31:00;;;;;;;351.63;330.20;;;;;;;;;;16891297;29;20181;-82
2022/08/31 17:39:20;;;;;;;386.00;361.73;;;;;;;;;;16888694;29;20213;-82
2022/08/31 17:47:41;;;;;;;361.03;338.93;;;;;;;;;;16887637;29;20340;-82
2022/08/31 17:56:02;;;;;;;386.87;362.67;;;;;;;;;;16893606;28;20248;-82
2022/08/31 18:04:22;;;;;;;421.83;394.60;;;;;;;;;;16893867;29;20208;-82
2022/08/31 18:12:43;;;;;;;503.80;470.43;;;;;;;;;;16893155;28;20185;-83
2022/08/31 18:21:06;;;;;;;473.50;442.53;;;;;;;;;;16892009;29;20276;-82
2022/08/31 18:29:27;;;;;;;547.47;503.45;;;;;;;;;;16885455;28;20407;-82
2022/08/31 18:37:47;;;;;;;303.23;286.17;;;;;;;;;;16891574;28;20201;-82
2022/08/31 18:46:07;;;;;;;286.17;270.43;;;;;;;;;;16890343;28;20212;-82
2022/08/31 18:54:28;;;;;;;266.10;251.77;;;;;;;;;;16889985;28;20225;-82
2022/08/31 19:02:48;;;;;;;184.67;174.87;;;;;;;;;;16889703;29;20555;-82
2022/08/31 19:11:08;;;;;;;30.53;28.90;;;;;;;;;;16888996;29;20178;-82
2022/08/31 19:19:30;;;;;;;15.10;14.27;;;;;;;;;;16890661;28;20599;-83
2022/08/31 19:27:51;;;;;;;11.53;10.73;;;;;;;;;;16889560;29;20630;-83
2022/08/31 19:36:11;;;;;;;6.03;5.57;;;;;;;;;;16888879;29;20548;-84
2022/08/31 19:44:33;;;;;;;7.40;5.60;;;;;;;;;;16888582;29;20272;-83
2022/08/31 19:52:53;;;;;;;8.73;4.43;;;;;;;;;;16888227;28;20195;-83
2022/08/31 20:01:14;;;;;;;4.47;4.07;;;;;;;;;;16888073;28;20237;-83
2022/08/31 20:09:34;;;;;;;6.57;4.50;;;;;;;;;;16885638;29;20235;-83
2022/08/31 20:17:56;;;;;;;7.50;4.73;;;;;;;;;;16887016;28;20260;-83
2022/08/31 20:26:20;;;;;;;4.90;4.50;;;;;;;;;;16886380;29;20181;-84
2022/08/31 20:34:42;;;;;;;7.23;4.53;;;;;;;;;;16886060;29;20212;-84
2022/08/31 20:43:05;;;;;;;3.50;3.20;;;;;;;;;;16884862;28;20605;-83
2022/08/31 20:51:26;;;;;;;3.80;3.50;;;;;;;;;;16884660;28;20292;-84
2022/08/31 20:59:49;;;;;;;4.33;3.93;;;;;;;;;;16889837;28;20591;-84
2022/08/31 21:08:10;;;;;;;4.80;3.70;;;;;;;;;;16895315;28;20544;-83
2022/08/31 21:16:33;;;;;;;4.57;3.97;;;;;;;;;;16895406;29;20205;-83
2022/08/31 21:24:58;;;;;;;4.40;4.00;;;;;;;;;;16895960;28;20188;-83
2022/08/31 21:33:18;;;;;;;4.30;3.30;;;;;;;;;;16894562;28;20273;-83
2022/08/31 21:41:39;;;;;;;6.87;3.23;;;;;;;;;;16894227;28;20228;-83
2022/08/31 21:49:59;;;;;;;3.53;3.20;;;;;;;;;;16893973;28;20672;-83
2022/08/31 21:58:19;;;;;;;4.60;3.10;;;;;;;;;;16892963;29;20233;-83
2022/08/31 22:06:41;;;;;;;5.20;3.37;;;;;;;;;;16893735;28;20186;-83
2022/08/31 22:15:05;;;;;;;4.60;3.30;;;;;;;;;;16891543;28;20209;-83
2022/08/31 22:23:25;;;;;;;3.60;3.30;;;;;;;;;;16892724;29;20193;-83
2022/08/31 22:31:46;;;;;;;3.73;3.43;;;;;;;;;;16890121;28;20208;-83
2022/08/31 22:40:08;;;;;;;4.43;3.30;;;;;;;;;;16888359;28;20201;-83
2022/08/31 22:48:28;;;;;;;6.03;3.50;;;;;;;;;;16887487;29;20237;-83
2022/08/31 22:56:49;;;;;;;4.63;3.30;;;;;;;;;;16891092;28;20561;-83
2022/08/31 23:05:11;;;;;;;4.83;3.43;;;;;;;;;;16892165;29;20301;-83
2022/08/31 23:22:11;;;;;;;4.83;4.53;;;;;;;;;;16890433;29;20644;-83
2022/08/31 23:30:31;;;;;;;3.77;3.40;;;;;;;;;;16890928;28;20588;-83
2022/08/31 23:38:53;;;;;;;4.37;3.10;;;;;;;;;;16889491;28;20225;-83
2022/08/31 23:47:15;;;;;;;3.93;3.40;;;;;;;;;;16889047;28;20779;-83
2022/08/31 23:55:40;;;;;;;4.00;3.70;;;;;;;;;;16888554;28;20707;-83
